createdAt,value
2022-10-11T09:44:51.719Z,1.47
2022-10-11T09:47:21.556Z,1.27
2022-10-11T09:49:52.108Z,1.40
2022-10-11T09:52:21.957Z,1.30
2022-10-11T09:54:51.060Z,1.37
2022-10-11T09:57:20.649Z,1.37
2022-10-11T10:00:00.612Z,1.30
2022-10-11T10:02:28.409Z,1.23
2022-10-11T10:05:00.533Z,1.30
2022-10-11T10:07:28.247Z,0.83
2022-10-11T10:09:56.285Z,1.77
2022-10-11T10:12:26.972Z,1.40
2022-10-11T10:15:18.615Z,1.40
2022-10-11T10:17:49.374Z,1.30
2022-10-11T10:20:20.985Z,1.43
2022-10-11T10:22:47.554Z,1.30
2022-10-11T10:25:22.040Z,1.50
2022-10-11T10:27:57.763Z,1.50
2022-10-11T10:30:26.343Z,1.37
2022-10-11T10:32:58.452Z,1.50
2022-10-11T10:35:34.008Z,1.50
2022-10-11T10:38:08.423Z,1.43
2022-10-11T10:40:41.515Z,1.40
2022-10-11T10:43:15.085Z,1.37
2022-10-11T10:45:57.919Z,1.33
2022-10-11T10:48:53.782Z,1.23
2022-10-11T10:51:28.240Z,1.23
2022-10-11T10:54:03.025Z,1.30
2022-10-11T10:56:35.527Z,1.33
2022-10-11T10:59:14.022Z,1.33
2022-10-11T11:01:50.063Z,1.10
2022-10-11T11:04:26.765Z,1.37
2022-10-11T11:06:57.596Z,1.50
2022-10-11T11:09:36.343Z,1.30
2022-10-11T11:12:14.580Z,1.20
2022-10-11T11:14:53.693Z,1.30
2022-10-11T11:17:31.819Z,1.13
2022-10-11T11:20:09.149Z,1.27
2022-10-11T11:22:47.017Z,1.10
2022-10-11T11:25:27.274Z,1.10
2022-10-11T11:28:03.465Z,1.10
2022-10-11T11:30:36.713Z,1.10
2022-10-11T11:33:11.766Z,1.20
2022-10-11T11:35:41.165Z,1.30
2022-10-11T11:38:15.740Z,1.37
2022-10-11T11:40:46.296Z,1.40
2022-10-11T11:43:20.996Z,1.03
2022-10-11T11:45:51.544Z,1.40
2022-10-11T11:48:21.796Z,1.20
2022-10-11T11:50:55.369Z,1.43
2022-10-11T11:53:31.465Z,1.10
2022-10-11T11:56:03.272Z,1.33
2022-10-11T11:58:36.245Z,1.40
2022-10-11T12:01:14.944Z,1.10
2022-10-11T12:03:47.494Z,1.27
2022-10-11T12:06:21.206Z,1.60
2022-10-11T12:08:55.204Z,1.90
2022-10-11T12:11:26.250Z,1.20
2022-10-11T12:13:54.562Z,1.00
2022-10-11T12:16:22.204Z,1.33
2022-10-11T12:19:01.053Z,1.10
2022-10-11T12:21:31.516Z,1.13
2022-10-11T12:23:59.205Z,1.07
2022-10-11T12:26:38.176Z,1.60
2022-10-11T12:29:40.391Z,1.30
2022-10-11T12:32:48.146Z,1.00
2022-10-11T12:35:40.113Z,1.37
2022-10-11T12:38:16.028Z,1.20
2022-10-11T12:40:44.104Z,1.43
2022-10-11T12:43:23.219Z,1.30
2022-10-11T12:45:50.249Z,1.10
2022-10-11T12:48:39.938Z,1.00
2022-10-11T12:51:25.675Z,1.20
2022-10-11T12:54:26.701Z,1.17
2022-10-11T12:57:24.466Z,1.00
2022-10-11T12:59:51.096Z,1.10
2022-10-11T13:02:28.583Z,0.93
2022-10-11T13:05:06.332Z,1.23
2022-10-11T13:07:35.394Z,0.90
2022-10-11T13:10:04.482Z,0.80
2022-10-11T13:12:36.468Z,0.80
2022-10-11T13:15:07.541Z,1.03
2022-10-11T13:17:38.687Z,1.10
2022-10-11T13:20:13.117Z,1.07
2022-10-11T13:22:41.000Z,1.00
2022-10-11T13:25:08.896Z,1.00
2022-10-11T13:27:36.883Z,1.20
2022-10-11T13:30:08.344Z,0.83
2022-10-11T13:32:36.537Z,1.20
2022-10-11T13:35:06.309Z,1.00
2022-10-11T13:37:44.065Z,0.93
2022-10-11T13:40:14.120Z,1.00
2022-10-11T13:42:40.765Z,0.80
2022-10-11T13:45:11.093Z,0.90
2022-10-11T13:47:37.848Z,0.90
2022-10-11T13:50:18.167Z,0.90
2022-10-11T13:52:55.320Z,0.90
2022-10-11T13:55:30.366Z,0.80
2022-10-11T13:57:58.515Z,1.00
2022-10-11T14:00:29.395Z,0.73
2022-10-11T14:02:59.694Z,1.10
2022-10-11T14:05:30.468Z,1.00
2022-10-11T14:08:00.173Z,0.93
2022-10-11T14:10:27.480Z,0.70
2022-10-11T14:13:06.345Z,0.83
2022-10-11T14:15:35.000Z,0.80
2022-10-11T14:18:22.587Z,0.70
2022-10-11T14:20:49.147Z,1.00
2022-10-11T14:23:16.988Z,0.80
2022-10-11T14:25:43.517Z,0.70
2022-10-11T14:28:11.675Z,0.87
2022-10-11T14:30:41.091Z,0.80
2022-10-11T14:33:07.676Z,0.80
2022-10-11T14:35:34.659Z,0.63
2022-10-11T14:38:01.214Z,0.60
2022-10-11T14:40:32.871Z,0.80
2022-10-11T14:42:59.442Z,0.70
2022-10-11T14:45:25.951Z,0.80
2022-10-11T14:47:52.555Z,0.60
2022-10-11T14:50:34.745Z,0.70
2022-10-11T14:53:01.304Z,0.93
2022-10-11T14:55:30.000Z,0.70
2022-10-11T14:57:56.538Z,0.70
2022-10-11T15:00:26.612Z,0.60
2022-10-11T15:02:53.947Z,0.70
2022-10-11T15:05:21.252Z,0.80
2022-10-11T15:07:48.195Z,1.00
2022-10-11T15:10:20.721Z,1.00
2022-10-11T15:12:49.018Z,0.80
2022-10-11T15:15:16.936Z,0.70
2022-10-11T15:17:43.522Z,0.60
2022-10-11T15:20:22.930Z,0.70
2022-10-11T15:22:49.594Z,0.83
2022-10-11T15:25:16.567Z,0.73
2022-10-11T15:27:43.253Z,0.90
2022-10-11T15:30:18.164Z,1.10
2022-10-11T15:32:44.681Z,0.70
2022-10-11T15:35:11.578Z,1.13
2022-10-11T15:37:38.289Z,0.70
2022-10-11T15:40:15.583Z,0.80
2022-10-11T15:42:42.192Z,0.60
2022-10-11T15:45:09.490Z,0.90
2022-10-11T15:47:37.408Z,0.80
2022-10-11T15:50:04.870Z,0.60
2022-10-11T15:52:31.355Z,0.70
2022-10-11T15:54:57.867Z,0.87
2022-10-11T15:57:24.360Z,0.90
2022-10-11T15:59:50.846Z,0.90
2022-10-11T16:02:17.367Z,0.80
2022-10-11T16:04:45.218Z,0.80
2022-10-11T16:07:11.734Z,0.90
2022-10-11T16:09:38.228Z,0.70
2022-10-11T16:12:05.127Z,0.90
2022-10-11T16:14:31.614Z,1.97
2022-10-11T16:17:00.190Z,1.90
2022-10-11T16:19:26.690Z,1.70
2022-10-11T16:21:54.541Z,1.47
2022-10-11T16:24:21.018Z,1.77
2022-10-11T16:26:47.557Z,1.60
2022-10-11T16:29:14.052Z,1.77
2022-10-11T16:31:40.575Z,1.40
2022-10-11T16:34:07.083Z,2.47
2022-10-11T16:36:33.594Z,2.00
2022-10-11T16:39:06.238Z,1.63
2022-10-11T16:41:32.744Z,1.70
2022-10-11T16:43:59.708Z,1.90
2022-10-11T16:46:26.281Z,2.00
2022-10-11T16:48:54.265Z,1.50
2022-10-11T16:51:20.755Z,2.23
2022-10-11T16:53:47.247Z,2.70
2022-10-11T16:56:15.067Z,5.53
2022-10-11T16:58:41.559Z,11.77
2022-10-11T17:01:10.140Z,5.40
2022-10-11T17:03:37.291Z,3.37
2022-10-11T17:06:04.873Z,2.40
2022-10-11T17:08:31.676Z,1.90
2022-10-11T17:10:58.244Z,1.63
2022-10-11T17:13:26.307Z,1.37
2022-10-11T17:15:52.887Z,1.30
2022-10-11T17:18:19.398Z,1.70
2022-10-11T17:20:46.175Z,1.57
2022-10-11T17:23:12.671Z,1.43
2022-10-11T17:25:42.960Z,1.13
2022-10-11T17:28:09.676Z,2.03
2022-10-11T17:30:38.365Z,1.73
2022-10-11T17:33:04.912Z,2.33
2022-10-11T17:35:32.217Z,1.50
2022-10-11T17:38:02.434Z,2.03
2022-10-11T17:40:32.370Z,1.90
2022-10-11T17:42:58.875Z,2.10
2022-10-11T17:45:25.534Z,1.57
2022-10-11T17:47:53.384Z,1.77
2022-10-11T17:50:19.917Z,1.50
2022-10-11T17:52:46.458Z,1.37
2022-10-11T17:55:12.973Z,1.00
2022-10-11T17:57:39.448Z,2.07
2022-10-11T18:00:07.072Z,1.90
2022-10-11T18:02:33.566Z,2.50
2022-10-11T18:05:01.387Z,2.60
2022-10-11T18:07:27.911Z,2.67
2022-10-11T18:09:54.431Z,3.00
2022-10-11T18:12:20.950Z,3.13
2022-10-11T18:14:47.453Z,3.57
2022-10-11T18:17:13.932Z,3.50
2022-10-11T18:19:40.444Z,4.60
2022-10-11T18:22:08.428Z,4.80
2022-10-11T18:24:34.939Z,3.37
2022-10-11T18:27:01.504Z,3.20
2022-10-11T18:29:27.995Z,2.77
2022-10-11T18:31:54.559Z,1.33
2022-10-11T18:34:21.110Z,1.50
2022-10-11T18:36:47.593Z,1.20
2022-10-11T18:39:15.575Z,1.57
2022-10-11T18:41:42.995Z,1.30
2022-10-11T18:44:12.593Z,1.20
2022-10-11T18:46:39.116Z,1.40
2022-10-11T18:49:05.627Z,1.70
2022-10-11T18:51:33.813Z,1.30
2022-10-11T18:54:00.602Z,1.60
2022-10-11T18:56:29.419Z,2.30
2022-10-11T18:58:57.052Z,2.40
2022-10-11T19:01:25.212Z,1.97
2022-10-11T19:03:54.224Z,1.63
2022-10-11T19:06:23.465Z,1.70
2022-10-11T19:08:51.763Z,1.20
2022-10-11T19:11:19.230Z,1.10
2022-10-11T19:13:47.102Z,1.47
2022-10-11T19:16:15.226Z,1.30
2022-10-11T19:18:44.420Z,1.40
2022-10-11T19:21:12.998Z,1.20
2022-10-11T19:23:41.355Z,1.30
2022-10-11T19:26:11.372Z,1.40
2022-10-11T19:28:37.916Z,1.63
2022-10-11T19:31:08.852Z,2.17
2022-10-11T19:33:35.885Z,3.17
2022-10-11T19:36:04.639Z,2.80
2022-10-11T19:38:32.861Z,2.63
2022-10-11T19:41:00.136Z,2.40
2022-10-11T19:43:26.914Z,1.90
2022-10-11T19:45:59.509Z,1.60
2022-10-11T19:48:27.591Z,1.70
2022-10-11T19:51:01.795Z,1.50
2022-10-11T19:53:28.281Z,1.50
2022-10-11T19:55:54.767Z,1.37
2022-10-11T19:58:21.259Z,1.50
2022-10-11T20:00:47.755Z,1.70
2022-10-11T20:03:15.026Z,1.50
2022-10-11T20:05:42.864Z,1.50
2022-10-11T20:08:09.356Z,1.77
2022-10-11T20:10:35.844Z,1.70
2022-10-11T20:13:02.325Z,1.53
2022-10-11T20:15:28.881Z,1.73
2022-10-11T20:17:55.359Z,1.73
2022-10-11T20:20:21.862Z,1.90
2022-10-11T20:22:49.692Z,1.70
2022-10-11T20:25:16.346Z,2.23
2022-10-11T20:27:42.834Z,1.70
2022-10-11T20:30:11.204Z,1.77
2022-10-11T20:32:37.699Z,1.80
2022-10-11T20:35:04.654Z,1.60
2022-10-11T20:37:31.452Z,1.70
2022-10-11T20:39:59.556Z,1.40
2022-10-11T20:42:29.716Z,1.50
2022-10-11T20:44:56.591Z,1.60
2022-10-11T20:47:23.053Z,1.80
2022-10-11T20:49:49.552Z,1.77
2022-10-11T20:52:16.047Z,2.37
2022-10-11T20:54:42.560Z,3.33
2022-10-11T20:57:10.379Z,2.77
2022-10-11T20:59:36.883Z,2.60
2022-10-11T21:02:03.670Z,2.80
2022-10-11T21:04:30.241Z,2.57
2022-10-11T21:06:56.732Z,2.70
2022-10-11T21:09:23.308Z,3.13
2022-10-11T21:11:49.796Z,3.20
2022-10-11T21:14:17.612Z,2.33
2022-10-11T21:16:44.153Z,2.60
2022-10-11T21:19:14.071Z,2.10
2022-10-11T21:21:40.645Z,2.40
2022-10-11T21:24:07.159Z,2.40
2022-10-11T21:26:33.680Z,2.80
2022-10-11T21:29:00.166Z,3.10
2022-10-11T21:31:33.578Z,3.37
2022-10-11T21:34:00.757Z,3.30
2022-10-11T21:36:27.293Z,3.37
2022-10-11T21:38:54.168Z,3.27
2022-10-11T21:41:22.610Z,2.50
2022-10-11T21:43:49.691Z,2.13
2022-10-11T21:46:17.819Z,2.23
2022-10-11T21:48:45.915Z,2.00
2022-10-11T21:53:45.428Z,1.90
2022-10-11T21:56:11.922Z,2.10
2022-10-11T21:58:38.438Z,1.97
2022-10-11T22:01:05.238Z,2.03
2022-10-11T22:03:31.792Z,2.13
2022-10-11T22:06:01.587Z,2.13
2022-10-11T22:08:28.245Z,2.03
2022-10-11T22:10:56.369Z,1.73
2022-10-11T22:13:23.320Z,2.30
2022-10-11T22:15:49.920Z,1.93
2022-10-11T22:18:16.517Z,2.13
2022-10-11T22:20:43.186Z,2.17
2022-10-11T22:23:11.043Z,1.93
2022-10-11T22:25:38.124Z,1.70
2022-10-11T22:28:05.426Z,1.90
2022-10-11T22:30:32.553Z,1.73
2022-10-11T22:32:59.051Z,1.80
2022-10-11T22:35:25.716Z,1.67
2022-10-11T22:37:52.291Z,2.10
2022-10-11T22:40:20.759Z,1.43
2022-10-11T22:42:47.606Z,1.50
2022-10-11T22:45:14.118Z,1.50
2022-10-11T22:47:40.630Z,1.77
2022-10-11T22:50:07.677Z,1.50
2022-10-11T22:52:34.177Z,1.57
2022-10-11T22:55:00.656Z,1.50
2022-10-11T22:57:28.550Z,1.60
2022-10-11T22:59:55.020Z,1.60
2022-10-11T23:02:21.534Z,1.77
2022-10-11T23:04:48.012Z,1.73
2022-10-11T23:07:14.502Z,1.80
2022-10-11T23:09:41.014Z,1.57
2022-10-11T23:12:07.932Z,1.70
2022-10-11T23:14:35.781Z,1.57
2022-10-11T23:17:02.245Z,1.50
2022-10-11T23:19:28.741Z,1.70
2022-10-11T23:21:55.206Z,1.60
2022-10-11T23:24:21.662Z,1.80
2022-10-11T23:26:48.177Z,2.00
2022-10-11T23:29:14.659Z,1.77
2022-10-11T23:31:42.500Z,1.70
2022-10-11T23:34:08.970Z,1.30
2022-10-11T23:36:35.454Z,1.93
2022-10-11T23:39:01.919Z,1.57
2022-10-11T23:41:30.292Z,1.80
2022-10-11T23:43:57.315Z,1.70
2022-10-11T23:46:23.845Z,1.63
2022-10-11T23:48:51.680Z,1.50
2022-10-11T23:51:18.217Z,1.57
2022-10-11T23:53:44.725Z,1.60
2022-10-11T23:56:11.674Z,1.40
2022-10-11T23:58:38.536Z,1.50
